Latest Weather Observations for Maroochydore

IDQ60901

Issued at 9:01 pm EST Tuesday 7 July 2015 (issued every 10 minutes, with the page automatically refreshed every 10 minutes)

About weather observations | Map of Brisbane area stations | Latest observations for Brisbane area | Other Formats
Station Details ID: 040861 Name: SUNSHINE COAST AIRPORT Lat: -26.60 Lon: 153.09 Height: 3.3 m
Data from the previous 72 hours. | See also: Recent months at Maroochydore
Date/Time
EST
Tmp

°C
App
Tmp
°C
Dew
Point
°C
Rel
Hum
%
Delta-T

°C
Wind Press
QNH
hPa
Press
MSL
hPa
Rain
since
9 am
mm
Dir
 
Spd
km/h
Gust
km/h
Spd
kts
Gust
kts
07/08:00pm 11.0 9.2 7.3 78 1.8 SW 6 9 3 5 1019.7 - 0.0
07/07:30pm 11.6 9.4 7.7 77 1.9 WSW 9 13 5 7 1019.4 - 0.0
07/06:30pm 17.5 14.0 7.3 51 5.1 SE 15 20 8 11 1018.8 - 0.0
07/05:30pm 18.1 13.5 6.3 46 5.8 ESE 20 24 11 13 1018.0 - 0.0
07/05:00pm 18.1 13.6 6.3 46 5.8 ESE 19 28 10 15 1017.6 - 0.0
07/04:30pm 18.6 14.6 6.8 46 5.9 SE 17 22 9 12 1017.2 - 0.0
07/04:00pm 19.5 14.7 4.4 37 7.2 SE 19 24 10 13 1017.1 - 0.0
07/03:30pm 20.2 15.6 5.8 39 7.1 SE 19 26 10 14 1016.7 - 0.0
07/03:00pm 20.3 15.3 6.6 41 6.9 ESE 22 28 12 15 1016.5 1016.5 0.0
07/02:30pm 21.1 16.4 5.9 37 7.6 SE 20 26 11 14 1016.2 - 0.0
07/02:00pm 21.9 17.9 6.6 37 7.8 SE 17 20 9 11 1016.2 - 0.0
07/01:30pm 23.2 17.6 -0.3 21 10.6 S 19 28 10 15 1016.0 - 0.0
07/01:00pm 23.5 18.3 -0.1 21 10.7 SSW 17 24 9 13 1016.1 - 0.0
07/12:30pm 23.0 17.1 -0.5 21 10.5 SSW 20 28 11 15 1016.3 - 0.0
07/11:30am 22.5 17.5 1.5 25 9.7 SW 17 24 9 13 1017.1 - 0.0
07/11:00am 22.0 17.3 3.2 29 9.0 SW 17 24 9 13 1017.4 - 0.0
07/10:30am 21.3 16.3 3.5 31 8.5 WSW 19 26 10 14 1017.7 - 0.0
07/10:00am 20.1 15.3 4.6 36 7.5 WSW 19 26 10 14 1017.9 - 0.0
07/09:30am 18.9 15.4 8.6 51 5.3 WSW 17 24 9 13 1018.1 - 0.0
07/09:00am 17.3 15.2 9.7 61 4.0 WSW 11 17 6 9 1018.1 1018.1 0.2
07/08:30am 15.4 13.2 10.8 74 2.4 WSW 13 17 7 9 1018.0 - 0.2
07/07:00am 8.8 5.9 8.0 95 0.4 WNW 13 15 7 8 1017.4 - 0.2
07/06:30am 9.3 6.5 8.7 96 0.3 WNW 13 15 7 8 1017.1 - 0.2
07/05:30am 9.4 7.7 8.5 94 0.4 SW 7 9 4 5 1016.7 - 0.2
07/05:00am 9.6 6.8 8.7 94 0.4 WNW 13 15 7 8 1016.3 - 0.2
07/03:30am 9.7 7.3 8.6 93 0.5 W 11 13 6 7 1016.3 - 0.2
07/03:00am 9.9 7.6 9.0 94 0.4 WNW 11 11 6 6 1016.5 1016.5 0.2
07/02:30am 9.3 6.8 8.1 92 0.6 W 11 11 6 6 1016.5 - 0.2
07/02:00am 10.3 8.8 9.1 92 0.6 WSW 7 9 4 5 1016.7 - 0.2
07/01:00am 9.2 7.5 8.4 95 0.4 W 7 9 4 5 1016.7 - 0.2
 
Date/Time
EST
Tmp

°C
App
Tmp
°C
Dew
Point
°C
Rel
Hum
%
Delta-T

°C
Wind Press
QNH
hPa
Press
MSL
hPa
Rain
since
9 am
mm
Dir
 
Spd
km/h
Gust
km/h
Spd
kts
Gust
kts
06/11:30pm 10.3 8.7 8.9 91 0.7 W 7 9 4 5 1017.1 - 0.2
06/11:00pm 11.1 9.7 9.4 89 0.9 WSW 7 9 4 5 1017.1 - 0.2
06/10:30pm 11.7 10.4 9.8 88 1.0 W 7 7 4 4 1017.1 - 0.2
06/10:00pm 11.5 9.9 10.1 91 0.7 NW 9 11 5 6 1017.2 - 0.2
06/09:30pm 11.4 9.7 10.0 91 0.7 WNW 9 9 5 5 1017.2 - 0.2
06/09:00pm 12.0 10.4 10.1 88 1.0 W 9 11 5 6 1017.2 1017.2 0.2
06/08:30pm 13.0 11.9 10.5 85 1.3 WNW 7 9 4 5 1017.1 - 0.2
06/08:00pm 14.1 12.0 11.1 82 1.6 NW 13 15 7 8 1016.9 - 0.2
06/07:30pm 14.6 12.5 11.2 80 1.8 NW 13 17 7 9 1016.8 - 0.2
06/07:00pm 14.6 12.8 10.8 78 2.0 NNW 11 15 6 8 1016.7 - 0.2
06/06:30pm 15.5 13.2 10.5 72 2.6 N 13 17 7 9 1016.4 - 0.2
06/06:00pm 15.8 14.0 12.2 79 2.0 N 13 17 7 9 1016.1 1016.1 0.2
06/05:30pm 16.6 14.9 12.4 76 2.3 N 13 17 7 9 1015.9 - 0.2
06/05:00pm 18.3 16.4 13.0 71 3.0 N 15 19 8 10 1015.9 - 0.2
06/04:30pm 20.0 17.9 13.5 66 3.7 N 17 22 9 12 1015.7 - 0.2
06/04:00pm 21.5 19.7 10.9 51 5.8 N 11 20 6 11 1015.6 - 0.2
06/03:30pm 22.9 20.5 8.6 40 7.6 NNW 11 17 6 9 1015.6 - 0.2
06/03:00pm 23.5 20.8 8.8 39 7.9 NW 13 19 7 10 1015.7 1015.7 0.2
06/02:30pm 23.8 21.6 7.8 36 8.4 W 9 19 5 10 1016.0 - 0.2
06/02:00pm 23.8 21.2 7.8 36 8.4 NNW 11 17 6 9 1016.1 - 0.2
06/01:30pm 23.5 22.0 8.4 38 8.0 WNW 6 15 3 8 1016.4 - 0.2
06/01:00pm 24.5 21.6 6.7 32 9.2 NW 11 15 6 8 1016.7 - 0.2
06/12:30pm 23.9 20.3 8.3 37 8.3 NW 17 24 9 13 1017.1 - 0.2
06/12:00pm 23.2 19.6 8.5 39 7.8 NW 17 22 9 12 1017.7 1017.7 0.0
06/11:30am 23.1 20.0 8.8 40 7.6 NW 15 22 8 12 1018.4 - 0.0
06/11:00am 22.4 20.2 10.9 48 6.4 W 13 17 7 9 1018.9 - 0.0
06/10:30am 22.1 20.5 12.9 56 5.3 NW 13 20 7 11 1019.2 - 0.0
06/10:00am 20.6 19.7 13.8 65 3.9 NW 11 15 6 8 1019.5 - 0.0
06/09:30am 18.4 18.2 13.5 73 2.8 NW 7 11 4 6 1019.7 - 0.0
06/09:00am 16.1 16.1 14.1 88 1.1 WNW 7 9 4 5 1019.8 1019.8 0.0
06/08:30am 14.2 13.8 13.1 93 0.6 NW 7 11 4 6 1019.9 - 0.0
06/08:00am 12.8 11.4 12.3 97 0.3 WNW 11 13 6 7 1019.7 - 0.0
06/07:30am 11.0 9.2 10.7 98 0.2 WNW 11 11 6 6 1019.6 - 0.0
06/07:18am 10.2 8.5 9.7 97 0.3 W 9 11 5 6 1019.6 - 0.0
06/07:00am 9.4 7.8 8.9 97 0.2 W 7 9 4 5 1019.5 - 0.0
06/06:59am 9.4 7.8 8.9 97 0.2 W 7 9 4 5 1019.5 - 0.0
06/06:30am 9.5 7.2 9.0 97 0.2 W 11 13 6 7 1019.3 - 0.0
06/06:22am 9.5 6.8 9.0 97 0.2 W 13 13 7 7 1019.2 - 0.0
06/06:01am 9.5 7.2 9.0 97 0.2 W 11 13 6 7 1019.2 - 0.0
06/06:00am 9.5 7.2 9.0 97 0.2 W 11 13 6 7 1019.2 1019.2 0.0
06/05:57am 9.8 7.6 9.3 97 0.2 W 11 13 6 7 1019.2 - 0.0
06/05:31am 9.8 8.0 9.3 97 0.2 W 9 11 5 6 1019.2 - 0.0
06/05:30am 9.8 8.0 9.3 97 0.2 W 9 11 5 6 1019.1 - 0.0
06/05:27am 9.8 8.0 9.3 97 0.2 W 9 9 5 5 1019.1 - 0.0
06/05:04am 10.1 8.7 9.6 97 0.2 WNW 7 9 4 5 1019.0 - 0.0
06/05:00am 10.1 8.7 9.6 97 0.2 WNW 7 9 4 5 1019.0 - 0.0
06/03:00am 11.6 9.9 11.1 97 0.3 W 11 11 6 6 1019.5 1019.5 0.0
06/02:30am 11.2 10.1 10.7 97 0.3 W 7 9 4 5 1019.7 - 0.0
06/02:00am 11.2 10.1 10.7 97 0.3 W 7 9 4 5 1019.9 - 0.0
06/01:30am 10.8 9.8 10.3 97 0.3 W 6 7 3 4 1020.3 - 0.0
06/01:13am 10.4 8.7 9.9 97 0.3 W 9 11 5 6 1020.5 - 0.0
06/01:00am 10.3 9.0 9.8 97 0.3 W 7 7 4 4 1020.5 - 0.0
06/12:30am 10.4 9.1 9.9 97 0.3 W 7 9 4 5 1020.7 - 0.0
06/12:13am 10.3 8.6 9.7 96 0.3 W 9 9 5 5 1020.8 - 0.0
06/12:08am 10.4 8.7 9.8 96 0.3 W 9 11 5 6 1020.7 - 0.0
06/12:00am 10.4 8.3 9.8 96 0.3 W 11 11 6 6 1020.9 1020.9 0.0
 
Date/Time
EST
Tmp

°C
App
Tmp
°C
Dew
Point
°C
Rel
Hum
%
Delta-T

°C
Wind Press
QNH
hPa
Press
MSL
hPa
Rain
since
9 am
mm
Dir
 
Spd
km/h
Gust
km/h
Spd
kts
Gust
kts
05/11:30pm 10.5 8.8 9.9 96 0.3 WNW 9 11 5 6 1020.7 - 0.0
05/11:00pm 10.8 9.5 10.0 95 0.4 W 7 9 4 5 1020.9 - 0.0
05/10:54pm 11.0 9.8 10.2 95 0.4 W 7 9 4 5 1020.8 - 0.0
05/10:30pm 11.9 11.2 11.3 96 0.3 W 6 7 3 4 1020.9 - 0.0
05/10:00pm 12.0 10.7 11.2 95 0.4 W 9 11 5 6 1021.2 - 0.0
05/09:30pm 12.4 11.8 11.6 95 0.4 NW 6 9 3 5 1021.1 - 0.0
05/09:00pm 12.3 11.1 11.5 95 0.4 WNW 9 11 5 6 1021.0 1021.0 0.0
05/08:30pm 11.9 12.2 10.8 93 0.6 CALM 0 0 0 0 1021.0 - 0.0
05/08:00pm 12.3 12.6 11.0 92 0.7 CALM 0 0 0 0 1020.8 - 0.0
05/07:30pm 12.8 12.0 11.2 90 0.8 W 6 7 3 4 1020.8 - 0.0
05/07:00pm 13.4 12.8 11.6 89 1.0 W 6 7 3 4 1020.6 - 0.0
05/06:30pm 14.1 14.3 11.8 86 1.2 NNW 2 7 1 4 1020.5 - 0.0
05/06:00pm 15.1 14.8 12.6 85 1.4 NNW 6 6 3 3 1020.4 1020.4 0.0
05/05:30pm 15.8 15.0 12.9 83 1.6 N 9 11 5 6 1020.2 - 0.0
05/05:00pm 16.8 15.1 12.5 76 2.4 NNE 13 15 7 8 1020.0 - 0.0
05/04:30pm 19.5 18.1 12.3 63 4.0 NE 11 15 6 8 1019.9 - 0.0
05/04:00pm 20.7 18.9 13.4 63 4.2 NE 15 19 8 10 1019.7 - 0.0
05/03:30pm 21.6 19.2 11.3 52 5.7 NNE 15 17 8 9 1019.8 - 0.0
05/03:00pm 21.5 19.1 11.5 53 5.5 NE 15 17 8 9 1019.7 1019.7 0.0
05/02:30pm 20.7 19.3 12.1 58 4.8 ENE 11 15 6 8 1019.7 - 0.0
05/02:00pm 20.7 18.9 12.1 58 4.8 ENE 13 17 7 9 1019.9 - 0.0
05/01:30pm 21.0 19.6 13.4 62 4.4 ENE 13 17 7 9 1020.1 - 0.0
05/01:00pm 20.5 20.3 14.6 69 3.4 E 9 13 5 7 1020.4 - 0.0
05/12:30pm 20.8 20.9 14.5 67 3.7 ESE 7 13 4 7 1020.8 - 0.0
05/12:00pm 21.5 20.7 10.9 51 5.8 W 6 13 3 7 1021.3 1021.3 0.0
05/11:30am 21.1 20.1 13.5 62 4.4 WSW 11 13 6 7 1021.8 - 0.0
05/11:00am 19.7 19.7 14.1 70 3.2 WSW 7 11 4 6 1022.4 - 0.0
05/10:30am 18.4 18.0 14.1 76 2.5 S 9 11 5 6 1022.8 - 0.0
05/10:00am 16.4 17.1 14.4 88 1.1 SSW 4 6 2 3 1023.0 - 0.0
05/09:30am 15.4 16.8 14.4 94 0.6 CALM 0 4 0 2 1023.1 - 0.0
05/09:00am 14.1 14.1 13.5 96 0.3 W 6 7 3 4 1022.9 1022.9 0.0
05/08:30am 13.7 13.6 13.2 97 0.3 W 6 9 3 5 1022.6 - 0.0
05/08:00am 12.0 11.2 11.7 98 0.2 W 7 9 4 5 1022.3 - 0.0
05/07:30am 10.7 9.1 10.2 97 0.3 W 9 9 5 5 1021.9 - 0.0
05/07:00am 9.2 7.6 8.7 97 0.2 W 7 9 4 5 1021.6 - 0.0
05/06:30am 9.2 7.2 8.7 97 0.2 W 9 11 5 6 1021.4 - 0.0
05/06:00am 8.6 6.5 8.2 97 0.2 W 9 11 5 6 1021.1 1021.1 0.0
05/05:30am 9.1 7.5 8.6 97 0.2 W 7 9 4 5 1020.8 - 0.0
05/05:00am 8.8 7.1 8.2 96 0.3 W 7 11 4 6 1020.7 - 0.0
05/04:30am 9.1 7.4 8.5 96 0.3 WSW 7 11 4 6 1020.6 - 0.0
05/03:00am 10.3 8.6 9.7 96 0.3 WSW 9 9 5 5 1020.7 1020.7 0.0
05/02:30am 10.8 9.8 10.2 96 0.3 WSW 6 7 3 4 1020.9 - 0.0
05/02:00am 11.4 10.0 10.9 97 0.3 WSW 9 11 5 6 1021.2 - 0.0
05/01:30am 10.9 9.7 10.4 97 0.3 WNW 7 11 4 6 1021.5 - 0.0
05/01:00am 10.6 9.3 10.1 97 0.3 WNW 7 9 4 5 1021.7 - 0.0
05/12:56am 10.6 9.0 10.1 97 0.3 WNW 9 11 5 6 1021.7 - 0.0
05/12:34am 9.6 8.1 9.0 96 0.3 W 7 9 4 5 1021.9 - 0.0
05/12:30am 9.6 8.2 9.0 96 0.3 W 6 9 3 5 1021.9 - 0.0
05/12:29am 9.7 8.4 9.1 96 0.3 W 6 9 3 5 1021.9 - 0.0
05/12:00am 9.5 8.1 8.7 95 0.4 W 6 7 3 4 1022.0 1022.0 0.0
 
Date/Time
EST
Tmp

°C
App
Tmp
°C
Dew
Point
°C
Rel
Hum
%
Delta-T

°C
Wind Press
QNH
hPa
Press
MSL
hPa
Rain
since
9 am
mm
Dir
 
Spd
km/h
Gust
km/h
Spd
kts
Gust
kts
04/11:36pm 9.8 8.3 9.0 95 0.4 SW 7 9 4 5 1022.0 - 0.0
04/11:30pm 10.9 9.3 10.3 96 0.3 WSW 9 9 5 5 1022.0 - 0.0
04/11:00pm 12.0 11.1 11.4 96 0.3 SW 7 11 4 6 1022.1 - 0.0
04/10:30pm 11.7 10.9 11.1 96 0.3 WSW 6 7 3 4 1022.3 - 0.0
04/10:00pm 11.5 10.0 10.6 94 0.5 W 9 9 5 5 1022.2 - 0.0
04/09:30pm 12.1 11.3 11.0 93 0.6 WSW 6 7 3 4 1022.1 - 0.0

Latest Capital City Observations: Canberra | Sydney | Melbourne | Brisbane | Adelaide | Perth | Hobart | Darwin

Other Formats:

Comma delimited format used in spreadsheet applications
http://www.bom.gov.au/fwo/IDQ60901/IDQ60901.94569.axf

JavaScript Object Notation format (JSON) in row-major order
http://www.bom.gov.au/fwo/IDQ60901/IDQ60901.94569.json